Time;durP1;ratioP1;P1;durP2;ratioP2;P2;SDS_P1;SDS_P2;PMS_P1;PMS_P2;Temp;Humidity;BMP_temperature;BMP_pressure;BME280_temperature;BME280_humidity;BME280_pressure;Samples;Min_cycle;Max_cycle;Signal;HPM_P1;HPM_P2
2024/03/08 00:02:13;;;;;;;;;;;;;;;17.38;43.68;101078.63;4960766;29;1184;-48
2024/03/08 00:04:39;;;;;;;;;;;;;;;16.35;45.76;101071.47;4960329;29;2200;-48
2024/03/08 00:07:05;;;;;;;;;;;;;;;15.93;45.88;101076.81;4959978;29;1084;-50
2024/03/08 00:09:31;;;;;;;;;;;;;;;17.42;44.66;101083.72;4948982;29;1043;-50
2024/03/08 00:11:56;;;;;;;;;;;;;;;16.27;46.13;101064.84;4960107;29;1118;-47
2024/03/08 00:14:22;;;;;;;;;;;;;;;15.88;45.96;101063.84;4959463;28;1073;-49
2024/03/08 00:16:48;;;;;;;;;;;;;;;16.63;46.11;101058.97;4960057;29;998;-45
2024/03/08 00:19:13;;;;;;;;;;;;;;;16.00;46.44;101054.25;4960526;29;1098;-48
2024/03/08 00:21:39;;;;;;;;;;;;;;;16.32;46.77;101053.06;4953141;29;1130;-49
2024/03/08 00:24:04;;;;;;;;;;;;;;;17.21;44.22;101045.28;4960021;29;1007;-47
2024/03/08 00:26:30;;;;;;;;;;;;;;;16.06;46.33;101039.75;4960014;29;1976;-49
2024/03/08 00:28:55;;;;;;;;;;;;;;;17.07;45.48;101048.00;4960016;29;1006;-47
2024/03/08 00:31:21;;;;;;;;;;;;;;;17.06;44.55;101041.84;4959899;29;1092;-46
2024/03/08 00:33:46;;;;;;;;;;;;;;;16.09;45.97;101039.53;4958640;29;890;-48
2024/03/08 00:36:12;;;;;;;;;;;;;;;15.91;45.88;101037.94;4959847;29;2124;-48
2024/03/08 00:38:37;;;;;;;;;;;;;;;17.37;44.75;101042.34;4960225;29;1045;-49
2024/03/08 00:41:03;;;;;;;;;;;;;;;16.28;45.98;101034.69;4959525;29;1006;-47
2024/03/08 00:43:30;;;;;;;;;;;;;;;15.88;46.06;101030.19;4959556;29;1176;-47
2024/03/08 00:45:56;;;;;;;;;;;;;;;17.53;44.01;101038.59;4957523;29;1918;-47
2024/03/08 00:48:21;;;;;;;;;;;;;;;16.23;46.07;101035.97;4959556;29;1002;-52
2024/03/08 00:50:47;;;;;;;;;;;;;;;15.89;45.62;101036.38;4959603;29;1144;-49
2024/03/08 00:53:12;;;;;;;;;;;;;;;15.62;45.67;101037.19;4959465;29;1010;-47
2024/03/08 00:55:38;;;;;;;;;;;;;;;17.24;44.70;101046.84;4959379;29;1196;-47
2024/03/08 00:58:09;;;;;;;;;;;;;;;16.02;46.29;101042.59;4957326;29;910;-45
2024/03/08 01:00:34;;;;;;;;;;;;;;;15.66;46.23;101041.38;4959417;29;986;-47
2024/03/08 01:03:00;;;;;;;;;;;;;;;16.96;45.33;101052.28;4959020;29;1006;-48
2024/03/08 01:05:25;;;;;;;;;;;;;;;15.99;46.68;101044.59;4959263;29;2062;-50
2024/03/08 01:07:51;;;;;;;;;;;;;;;15.66;46.46;101034.25;4959560;29;1142;-48
2024/03/08 01:10:16;;;;;;;;;;;;;;;16.69;45.97;101044.41;4950257;29;1002;-48
2024/03/08 01:12:45;;;;;;;;;;;;;;;16.11;46.71;101038.50;4959013;29;1041;-49
2024/03/08 01:15:10;;;;;;;;;;;;;;;15.62;46.82;101031.88;4959282;29;1014;-50
2024/03/08 01:17:36;;;;;;;;;;;;;;;16.99;44.93;101030.81;4959480;29;1224;-48
2024/03/08 01:20:02;;;;;;;;;;;;;;;15.87;47.07;101033.81;4959282;29;1065;-47
2024/03/08 01:22:29;;;;;;;;;;;;;;;15.61;46.42;101035.50;4951021;29;898;-51
2024/03/08 01:24:58;;;;;;;;;;;;;;;17.15;45.23;101032.38;4956383;28;1906;-50
2024/03/08 01:27:24;;;;;;;;;;;;;;;16.23;46.27;101035.97;4959157;29;1038;-46
2024/03/08 01:29:50;;;;;;;;;;;;;;;15.71;47.28;101039.28;4959379;29;1062;-50
2024/03/08 01:32:16;;;;;;;;;;;;;;;17.18;44.63;101049.94;4958867;29;1173;-51
2024/03/08 01:34:42;;;;;;;;;;;;;;;15.98;46.75;101042.88;4947295;29;1066;-48
2024/03/08 01:37:07;;;;;;;;;;;;;;;15.77;46.93;101051.28;4959219;29;1137;-48
2024/03/08 01:39:33;;;;;;;;;;;;;;;16.20;46.52;101047.63;4958762;29;1099;-51
2024/03/08 01:41:58;;;;;;;;;;;;;;;15.71;46.59;101046.38;4958987;29;1134;-49
2024/03/08 01:44:24;;;;;;;;;;;;;;;17.09;45.40;101054.97;4958129;29;1971;-50
2024/03/08 01:46:52;;;;;;;;;;;;;;;16.04;46.48;101042.50;4954336;29;873;-49
2024/03/08 01:49:18;;;;;;;;;;;;;;;15.62;46.46;101040.72;4958551;29;1165;-48
2024/03/08 01:51:43;;;;;;;;;;;;;;;17.45;44.06;101044.44;4958519;29;1141;-48
2024/03/08 01:54:13;;;;;;;;;;;;;;;16.10;46.53;101042.09;4943914;29;1230;-48
2024/03/08 01:56:38;;;;;;;;;;;;;;;15.71;46.26;101041.94;4941870;29;1138;-48
2024/03/08 01:59:04;;;;;;;;;;;;;;;17.12;45.17;101048.56;4948287;29;1065;-48
2024/03/08 02:01:29;;;;;;;;;;;;;;;16.30;45.83;101044.38;4958740;29;1228;-48
2024/03/08 02:03:55;;;;;;;;;;;;;;;16.63;46.53;101049.19;4958466;29;1047;-50
2024/03/08 02:06:20;;;;;;;;;;;;;;;17.75;43.48;101050.31;4957953;29;1906;-46
2024/03/08 02:08:46;;;;;;;;;;;;;;;16.28;45.89;101047.97;4958784;29;1094;-49
2024/03/08 02:11:12;;;;;;;;;;;;;;;15.88;46.07;101050.59;4953570;29;914;-51
2024/03/08 02:13:37;;;;;;;;;;;;;;;17.35;44.43;101046.94;4946011;29;1011;-50
2024/03/08 02:16:04;;;;;;;;;;;;;;;16.20;46.32;101038.84;4957820;29;1462;-49
2024/03/08 02:18:30;;;;;;;;;;;;;;;15.84;46.19;101046.41;4958178;29;1070;-48
2024/03/08 02:20:56;;;;;;;;;;;;;;;17.23;44.54;101048.66;4958439;29;1045;-51
2024/03/08 02:23:21;;;;;;;;;;;;;;;16.00;46.54;101046.28;4945926;29;1066;-48
2024/03/08 02:25:50;;;;;;;;;;;;;;;15.76;46.14;101049.59;4958321;29;1907;-52
2024/03/08 02:28:17;;;;;;;;;;;;;;;16.64;46.15;101048.25;4958069;29;1130;-50
2024/03/08 02:30:43;;;;;;;;;;;;;;;16.01;46.43;101048.88;4958040;29;1053;-51
2024/03/08 02:33:12;;;;;;;;;;;;;;;15.70;45.88;101042.84;4958288;29;1093;-49
2024/03/08 02:35:37;;;;;;;;;;;;;;;16.48;46.13;101042.28;4951226;28;952;-52
2024/03/08 02:38:03;;;;;;;;;;;;;;;16.01;46.34;101048.00;4957912;28;1260;-47
2024/03/08 02:40:29;;;;;;;;;;;;;;;15.60;46.10;101041.78;4958346;29;1156;-48
2024/03/08 02:42:54;;;;;;;;;;;;;;;16.76;45.99;101043.03;4957889;29;1039;-51
2024/03/08 02:45:20;;;;;;;;;;;;;;;16.65;45.54;101049.94;4957297;29;1986;-48
2024/03/08 02:47:46;;;;;;;;;;;;;;;15.83;46.80;101052.69;4957405;29;1019;-48
2024/03/08 02:50:11;;;;;;;;;;;;;;;16.06;47.23;101051.22;4958106;29;1077;-53
2024/03/08 02:52:37;;;;;;;;;;;;;;;16.51;45.60;101053.53;4957600;29;1021;-49
2024/03/08 02:55:02;;;;;;;;;;;;;;;15.69;46.47;101062.38;4957736;29;1157;-50
2024/03/08 02:57:28;;;;;;;;;;;;;;;16.83;45.92;101059.41;4956806;29;1123;-50
2024/03/08 02:59:54;;;;;;;;;;;;;;;15.93;46.96;101067.06;4951422;29;1134;-50
2024/03/08 03:02:19;;;;;;;;;;;;;;;17.30;44.76;101069.50;4945780;29;1193;-48
2024/03/08 03:04:45;;;;;;;;;;;;;;;17.36;44.03;101066.41;4958094;29;1974;-48
2024/03/08 03:07:11;;;;;;;;;;;;;;;16.22;45.96;101068.75;4957527;29;1041;-49
2024/03/08 03:09:36;;;;;;;;;;;;;;;15.82;45.97;101058.91;4957051;29;1085;-48
2024/03/08 03:12:02;;;;;;;;;;;;;;;16.79;45.78;101069.38;4957929;29;1194;-50
2024/03/08 03:14:28;;;;;;;;;;;;;;;16.78;45.22;101062.38;4957560;29;1104;-51
2024/03/08 03:16:54;;;;;;;;;;;;;;;15.90;46.50;101065.44;4957630;29;1033;-49
2024/03/08 03:19:19;;;;;;;;;;;;;;;15.70;45.77;101056.13;4957745;29;1042;-48
2024/03/08 03:21:45;;;;;;;;;;;;;;;16.70;45.97;101073.53;4955746;29;1104;-48
2024/03/08 03:24:12;;;;;;;;;;;;;;;16.35;45.99;101072.31;4950928;29;1066;-50
2024/03/08 03:26:40;;;;;;;;;;;;;;;15.72;46.52;101063.97;4958004;29;1918;-46
2024/03/08 03:29:06;;;;;;;;;;;;;;;15.93;47.17;101066.19;4957190;29;1149;-48
2024/03/08 03:31:32;;;;;;;;;;;;;;;16.61;45.87;101063.53;4957642;29;1043;-49
2024/03/08 03:34:02;;;;;;;;;;;;;;;15.83;46.64;101064.13;4955395;29;1097;-50
2024/03/08 03:36:28;;;;;;;;;;;;;;;15.53;46.20;101058.06;4957644;29;1149;-48
2024/03/08 03:39:05;;;;;;;;;;;;;;;17.00;45.55;101059.06;4957047;29;1034;-48
2024/03/08 03:41:30;;;;;;;;;;;;;;;16.03;46.39;101068.16;4957622;29;1140;-51
2024/03/08 03:43:56;;;;;;;;;;;;;;;15.82;47.51;101059.78;4956113;29;1117;-49
2024/03/08 03:46:21;;;;;;;;;;;;;;;17.69;43.66;101069.38;4952277;29;1987;-51
2024/03/08 03:48:47;;;;;;;;;;;;;;;16.21;46.45;101067.94;4954803;29;1046;-50
2024/03/08 03:51:15;;;;;;;;;;;;;;;15.67;46.21;101065.13;4961083;29;1050;-49
2024/03/08 03:53:40;;;;;;;;;;;;;;;15.51;46.23;101064.41;4960577;29;1185;-50
2024/03/08 03:56:06;;;;;;;;;;;;;;;16.53;45.79;101064.91;4961101;29;1065;-48
2024/03/08 03:58:32;;;;;;;;;;;;;;;15.72;46.73;101066.63;4955778;29;1144;-50
2024/03/08 04:00:58;;;;;;;;;;;;;;;17.04;45.49;101064.16;4951886;29;1161;-51
2024/03/08 04:03:23;;;;;;;;;;;;;;;16.20;46.51;101068.03;4956570;29;1189;-50
2024/03/08 04:05:49;;;;;;;;;;;;;;;15.73;46.67;101074.47;4960056;29;1918;-49
2024/03/08 04:08:14;;;;;;;;;;;;;;;16.28;46.81;101068.38;4960737;29;1070;-51
2024/03/08 04:10:41;;;;;;;;;;;;;;;16.11;46.51;101072.13;4960137;29;1021;-51
2024/03/08 04:13:09;;;;;;;;;;;;;;;16.57;46.41;101072.66;4960257;29;1109;-48
2024/03/08 04:15:35;;;;;;;;;;;;;;;17.91;42.98;101081.13;4960568;29;1057;-49
2024/03/08 04:18:00;;;;;;;;;;;;;;;16.34;46.05;101075.91;4960424;29;1054;-49
2024/03/08 04:20:26;;;;;;;;;;;;;;;15.81;46.46;101065.19;4960406;29;1116;-49
2024/03/08 04:22:51;;;;;;;;;;;;;;;17.57;43.85;101069.31;4955798;29;1089;-50
2024/03/08 04:25:17;;;;;;;;;;;;;;;16.22;46.26;101069.63;4960316;29;1977;-50
2024/03/08 04:27:43;;;;;;;;;;;;;;;15.86;46.25;101074.56;4960229;29;1122;-50
2024/03/08 04:30:08;;;;;;;;;;;;;;;15.59;45.51;101069.22;4959793;29;1039;-51
2024/03/08 04:32:34;;;;;;;;;;;;;;;16.50;45.79;101070.41;4960319;29;1104;-50
2024/03/08 04:35:01;;;;;;;;;;;;;;;15.69;46.38;101070.34;4953618;29;1073;-49
2024/03/08 04:37:29;;;;;;;;;;;;;;;17.73;43.85;101073.53;4959783;29;1109;-48
2024/03/08 04:39:55;;;;;;;;;;;;;;;16.61;45.72;101064.41;4959355;29;1128;-50
2024/03/08 04:42:20;;;;;;;;;;;;;;;15.93;46.60;101068.84;4952756;29;1220;-49
2024/03/08 04:44:46;;;;;;;;;;;;;;;17.10;45.20;101069.09;4954581;29;2005;-49
2024/03/08 04:47:11;;;;;;;;;;;;;;;16.05;46.52;101062.75;4959657;29;862;-48
2024/03/08 04:49:37;;;;;;;;;;;;;;;16.56;46.30;101074.47;4960028;29;1109;-48
2024/03/08 04:52:03;;;;;;;;;;;;;;;16.96;44.81;101062.91;4959249;29;1023;-49
2024/03/08 04:54:28;;;;;;;;;;;;;;;16.05;45.88;101068.06;4958465;28;1161;-45
2024/03/08 04:56:54;;;;;;;;;;;;;;;15.78;45.75;101067.09;4959584;29;1116;-46
2024/03/08 04:59:19;;;;;;;;;;;;;;;16.91;45.64;101074.81;4958214;28;1152;-47
2024/03/08 05:01:45;;;;;;;;;;;;;;;16.17;46.20;101071.72;4947829;29;1050;-45
2024/03/08 05:04:10;;;;;;;;;;;;;;;15.78;46.46;101074.22;4958521;29;1072;-44
2024/03/08 05:06:36;;;;;;;;;;;;;;;15.95;47.17;101074.91;4958828;29;1894;-49
2024/03/08 05:09:13;;;;;;;;;;;;;;;16.55;46.06;101069.28;4959289;29;1188;-42
2024/03/08 05:11:42;;;;;;;;;;;;;;;16.73;45.83;101078.63;4958657;29;985;-42
2024/03/08 05:14:08;;;;;;;;;;;;;;;17.11;44.29;101084.94;4957782;29;1027;-40
2024/03/08 05:16:34;;;;;;;;;;;;;;;17.04;44.01;101082.78;4957993;29;1075;-46
2024/03/08 05:18:59;;;;;;;;;;;;;;;16.70;44.87;101092.13;4958776;29;1309;-40
2024/03/08 05:21:25;;;;;;;;;;;;;;;16.27;45.79;101090.53;4958703;29;1030;-41
2024/03/08 05:23:50;;;;;;;;;;;;;;;16.10;46.23;101095.16;4958665;29;1049;-44
2024/03/08 05:26:16;;;;;;;;;;;;;;;15.84;46.92;101096.81;4949909;29;1973;-43
2024/03/08 05:28:41;;;;;;;;;;;;;;;15.73;47.03;101098.34;4955481;29;1158;-44
2024/03/08 05:31:07;;;;;;;;;;;;;;;15.60;47.40;101102.75;4957320;29;1497;-47
2024/03/08 05:33:34;;;;;;;;;;;;;;;15.51;47.54;101099.75;4958922;29;1216;-45
2024/03/08 05:36:00;;;;;;;;;;;;;;;15.40;47.82;101108.34;4958114;29;1514;-43
2024/03/08 05:38:26;;;;;;;;;;;;;;;15.27;47.63;101107.41;4959155;29;1103;-44
2024/03/08 05:40:51;;;;;;;;;;;;;;;15.47;47.50;101106.16;4958737;29;1070;-44
2024/03/08 05:43:19;;;;;;;;;;;;;;;17.04;43.85;101109.34;4958778;29;1102;-44
2024/03/08 05:45:45;;;;;;;;;;;;;;;16.39;45.12;101116.28;4958837;29;1981;-42
2024/03/08 05:48:12;;;;;;;;;;;;;;;15.88;46.54;101109.78;4958378;29;1136;-45
2024/03/08 05:50:38;;;;;;;;;;;;;;;15.55;47.14;101113.63;4953512;29;1377;-42
2024/03/08 05:53:06;;;;;;;;;;;;;;;15.49;47.21;101122.84;4958103;29;1026;-43
2024/03/08 05:55:34;;;;;;;;;;;;;;;16.76;44.41;101123.59;4958532;29;1171;-43
2024/03/08 05:58:01;;;;;;;;;;;;;;;17.40;42.71;101121.06;4958256;29;1049;-42
2024/03/08 06:00:26;;;;;;;;;;;;;;;16.49;44.68;101124.50;4957660;29;1322;-40
2024/03/08 06:02:52;;;;;;;;;;;;;;;16.02;46.10;101131.97;4958120;29;1020;-44
2024/03/08 06:05:17;;;;;;;;;;;;;;;15.74;46.77;101123.94;4958500;29;2034;-39
2024/03/08 06:07:43;;;;;;;;;;;;;;;15.57;46.86;101137.41;4958066;29;988;-39
2024/03/08 06:10:12;;;;;;;;;;;;;;;15.57;46.95;101137.41;4958016;28;1179;-42
2024/03/08 06:12:41;;;;;;;;;;;;;;;16.31;45.61;101138.97;4953963;29;1375;-44
2024/03/08 06:15:09;;;;;;;;;;;;;;;17.40;42.89;101139.66;4955130;29;1528;-42
2024/03/08 06:17:38;;;;;;;;;;;;;;;16.36;44.83;101142.19;4946979;29;1211;-42
2024/03/08 06:20:10;;;;;;;;;;;;;;;15.95;45.84;101143.91;4938975;29;1178;-44
2024/03/08 06:22:41;;;;;;;;;;;;;;;15.67;46.56;101139.41;4953443;29;1371;-39
2024/03/08 06:25:07;;;;;;;;;;;;;;;15.44;46.89;101148.78;4957042;29;1906;-43
2024/03/08 06:27:33;;;;;;;;;;;;;;;15.68;46.64;101150.88;4957700;29;1305;-40
2024/03/08 06:29:59;;;;;;;;;;;;;;;17.15;43.59;101154.69;4958711;29;1022;-42
2024/03/08 06:32:25;;;;;;;;;;;;;;;16.69;44.14;101148.88;4958241;29;1149;-40
2024/03/08 06:34:51;;;;;;;;;;;;;;;16.12;45.33;101143.69;4958173;29;1124;-40
2024/03/08 06:37:21;;;;;;;;;;;;;;;15.79;46.47;101145.75;4950000;29;886;-39
2024/03/08 06:39:51;;;;;;;;;;;;;;;15.58;46.91;101155.88;4956871;29;1288;-40
2024/03/08 06:42:16;;;;;;;;;;;;;;;15.36;46.91;101143.09;4954430;29;1231;-40
2024/03/08 06:44:48;;;;;;;;;;;;;;;16.72;44.52;101139.81;4954050;29;1907;-39
2024/03/08 06:47:15;;;;;;;;;;;;;;;17.09;43.15;101153.31;4957033;29;1422;-38
2024/03/08 06:49:40;;;;;;;;;;;;;;;16.26;45.27;101147.25;4956485;29;1116;-41
2024/03/08 06:52:08;;;;;;;;;;;;;;;15.88;45.75;101144.28;4957313;29;1296;-38
2024/03/08 06:54:35;;;;;;;;;;;;;;;15.63;46.53;101147.66;4953726;29;1402;-40
2024/03/08 06:57:03;;;;;;;;;;;;;;;15.50;46.90;101152.84;4957762;29;1312;-39
2024/03/08 06:59:29;;;;;;;;;;;;;;;16.95;43.96;101153.38;4956415;29;1178;-38
2024/03/08 07:01:54;;;;;;;;;;;;;;;17.34;42.66;101150.75;4954815;29;1194;-41
2024/03/08 07:04:21;;;;;;;;;;;;;;;16.39;44.58;101153.47;4957012;29;1177;-39
2024/03/08 07:06:49;;;;;;;;;;;;;;;15.94;45.64;101150.16;4957155;29;1981;-41
2024/03/08 07:09:16;;;;;;;;;;;;;;;15.75;46.49;101152.16;4957419;29;1454;-38
2024/03/08 07:11:42;;;;;;;;;;;;;;;15.55;46.88;101153.41;4938431;29;1018;-40
2024/03/08 07:14:08;;;;;;;;;;;;;;;16.05;45.76;101153.00;4957353;29;1272;-38
2024/03/08 07:16:35;;;;;;;;;;;;;;;17.37;42.99;101151.38;4957036;29;1237;-40
2024/03/08 07:19:01;;;;;;;;;;;;;;;16.54;44.42;101156.06;4957556;29;1232;-38
2024/03/08 07:21:26;;;;;;;;;;;;;;;16.01;45.46;101154.16;4957677;29;1217;-38
2024/03/08 07:26:27;;;;;;;;;;;;;;;15.53;46.83;101153.50;4960456;29;1955;-42
2024/03/08 07:28:54;;;;;;;;;;;;;;;16.61;44.73;101153.84;4960699;29;1249;-40
2024/03/08 07:31:34;;;;;;;;;;;;;;;17.53;42.38;101152.97;4960490;29;1277;-39
2024/03/08 07:34:00;;;;;;;;;;;;;;;16.47;44.46;101160.06;4960712;29;1312;-43
2024/03/08 07:36:25;;;;;;;;;;;;;;;15.95;45.83;101158.00;4960365;29;1261;-39
2024/03/08 07:38:51;;;;;;;;;;;;;;;15.79;46.24;101155.47;4960869;29;1261;-40
2024/03/08 07:41:16;;;;;;;;;;;;;;;15.59;46.46;101164.69;4960884;29;1237;-38
2024/03/08 07:43:42;;;;;;;;;;;;;;;16.88;44.03;101163.56;4960278;29;1269;-42
2024/03/08 07:46:10;;;;;;;;;;;;;;;17.28;42.80;101153.84;4959935;29;1909;-41
2024/03/08 07:48:36;;;;;;;;;;;;;;;16.38;44.64;101158.88;4959980;29;1315;-42
2024/03/08 07:51:02;;;;;;;;;;;;;;;16.05;45.56;101157.47;4960202;29;1288;-41
2024/03/08 07:53:28;;;;;;;;;;;;;;;15.78;46.33;101153.78;4960687;29;1233;-39
2024/03/08 07:55:53;;;;;;;;;;;;;;;15.59;46.41;101159.38;4959934;29;1200;-42
2024/03/08 07:58:19;;;;;;;;;;;;;;;16.53;44.59;101157.84;4960453;29;1327;-43
2024/03/08 08:00:45;;;;;;;;;;;;;;;17.35;42.81;101149.81;4960342;29;1088;-42
2024/03/08 08:03:10;;;;;;;;;;;;;;;16.43;44.57;101154.13;4960961;29;1077;-40
2024/03/08 08:05:38;;;;;;;;;;;;;;;15.98;45.82;101151.66;4960173;29;1989;-42
2024/03/08 08:08:06;;;;;;;;;;;;;;;15.76;46.38;101155.69;4960340;29;1312;-40
2024/03/08 08:10:34;;;;;;;;;;;;;;;16.45;44.96;101159.34;4959670;29;1120;-41
2024/03/08 08:13:00;;;;;;;;;;;;;;;17.62;42.10;101157.63;4959863;29;1148;-43
2024/03/08 08:15:25;;;;;;;;;;;;;;;16.87;43.73;101156.53;4955194;29;1360;-41
2024/03/08 08:17:53;;;;;;;;;;;;;;;16.26;45.12;101158.72;4954713;29;1452;-42
2024/03/08 08:20:19;;;;;;;;;;;;;;;15.94;46.04;101150.16;4949725;29;1641;-45
2024/03/08 08:22:44;;;;;;;;;;;;;;;15.72;46.10;101146.19;4952466;29;1568;-41
2024/03/08 08:25:12;;;;;;;;;;;;;;;15.51;46.88;101150.13;4959857;29;1914;-44
2024/03/08 08:27:39;;;;;;;;;;;;;;;16.84;43.98;101154.09;4954976;29;1414;-44
2024/03/08 08:30:07;;;;;;;;;;;;;;;17.38;42.58;101157.56;4946278;29;1636;-41
2024/03/08 08:32:36;;;;;;;;;;;;;;;16.44;44.56;101149.66;4959522;29;1140;-42
2024/03/08 08:35:04;;;;;;;;;;;;;;;16.03;45.70;101152.25;4959493;28;1157;-42
2024/03/08 08:37:30;;;;;;;;;;;;;;;15.73;45.97;101155.88;4959047;29;1477;-42
2024/03/08 08:39:57;;;;;;;;;;;;;;;15.55;46.91;101153.41;4959945;29;1120;-42
2024/03/08 08:42:23;;;;;;;;;;;;;;;15.91;46.19;101143.25;4959509;29;1290;-43
2024/03/08 08:44:50;;;;;;;;;;;;;;;17.24;43.18;101153.19;4958397;29;1907;-42
2024/03/08 08:47:18;;;;;;;;;;;;;;;17.01;43.10;101145.84;4959248;29;1043;-45
2024/03/08 08:49:47;;;;;;;;;;;;;;;16.26;44.78;101145.47;4958840;29;1030;-43
2024/03/08 08:52:12;;;;;;;;;;;;;;;15.94;45.88;101143.03;4959186;29;1245;-42
2024/03/08 08:54:38;;;;;;;;;;;;;;;15.67;46.36;101150.00;4959133;29;1126;-42
2024/03/08 08:57:07;;;;;;;;;;;;;;;15.55;46.95;101154.28;4957500;29;1255;-45
2024/03/08 08:59:35;;;;;;;;;;;;;;;16.91;43.81;101158.06;4956962;29;1334;-40
2024/03/08 09:02:01;;;;;;;;;;;;;;;17.21;42.77;101156.06;4957630;29;1284;-43
2024/03/08 09:04:29;;;;;;;;;;;;;;;16.36;44.66;101161.63;4957349;29;1245;-42
2024/03/08 09:06:54;;;;;;;;;;;;;;;16.03;45.55;101155.75;4957565;29;1985;-43
2024/03/08 09:09:21;;;;;;;;;;;;;;;15.74;46.28;101150.47;4957565;29;1295;-41
2024/03/08 09:11:47;;;;;;;;;;;;;;;15.51;46.53;101155.44;4955702;29;1044;-42
2024/03/08 09:14:14;;;;;;;;;;;;;;;16.60;44.64;101152.16;4956331;29;1375;-43
2024/03/08 09:16:39;;;;;;;;;;;;;;;17.56;42.15;101162.53;4956760;29;1082;-43
2024/03/08 09:19:06;;;;;;;;;;;;;;;16.59;44.05;101158.41;4958031;29;1471;-45
2024/03/08 09:21:32;;;;;;;;;;;;;;;16.15;45.06;101162.06;4942474;29;1069;-42
2024/03/08 09:23:58;;;;;;;;;;;;;;;15.88;45.80;101160.19;4958878;29;1081;-41
2024/03/08 09:26:24;;;;;;;;;;;;;;;15.64;46.74;101165.25;4958186;29;1906;-41
2024/03/08 09:28:49;;;;;;;;;;;;;;;16.59;44.39;101167.22;4958441;29;1311;-42
2024/03/08 09:31:15;;;;;;;;;;;;;;;17.53;42.21;101166.28;4958629;29;1182;-41
2024/03/08 09:33:41;;;;;;;;;;;;;;;16.48;44.65;101167.91;4955856;29;1311;-40
2024/03/08 09:36:07;;;;;;;;;;;;;;;16.01;45.26;101164.78;4957176;29;1242;-39
2024/03/08 09:38:34;;;;;;;;;;;;;;;15.78;46.21;101165.22;4958290;29;1201;-39
2024/03/08 09:41:01;;;;;;;;;;;;;;;16.21;45.32;101167.94;4958446;29;1280;-39
2024/03/08 09:43:28;;;;;;;;;;;;;;;17.45;42.45;101171.28;4958502;29;1232;-42
2024/03/08 09:45:53;;;;;;;;;;;;;;;16.53;44.42;101176.44;4957206;28;1894;-41
2024/03/08 09:48:19;;;;;;;;;;;;;;;16.08;45.26;101163.41;4957398;29;1240;-39
2024/03/08 09:50:44;;;;;;;;;;;;;;;15.79;46.26;101179.34;4938322;29;1012;-42
2024/03/08 09:53:13;;;;;;;;;;;;;;;15.81;46.40;101172.16;4958263;29;1186;-40
2024/03/08 09:55:42;;;;;;;;;;;;;;;17.25;42.88;101170.84;4957044;29;1249;-45
2024/03/08 10:00:45;;;;;;;;;;;;;;;16.18;45.07;101165.47;4952538;29;1287;-39
2024/03/08 10:03:14;;;;;;;;;;;;;;;15.81;46.16;101179.25;4958377;29;1082;-42
2024/03/08 10:05:40;;;;;;;;;;;;;;;15.66;46.28;101177.47;4952678;29;1983;-42
2024/03/08 10:08:06;;;;;;;;;;;;;;;16.59;44.49;101177.84;4949551;29;1578;-43
2024/03/08 10:10:35;;;;;;;;;;;;;;;17.58;42.01;101168.59;4956891;29;1122;-41
2024/03/08 10:13:01;;;;;;;;;;;;;;;16.54;44.13;101172.00;4956122;29;1213;-40
2024/03/08 10:15:28;;;;;;;;;;;;;;;16.04;45.46;101161.91;4957820;29;1296;-41
2024/03/08 10:17:53;;;;;;;;;;;;;;;15.76;45.93;101169.81;4957280;29;1249;-40
2024/03/08 10:20:19;;;;;;;;;;;;;;;15.61;46.39;101171.63;4957676;29;1285;-40
2024/03/08 10:22:44;;;;;;;;;;;;;;;16.53;44.58;101168.47;4958255;29;1295;-42
2024/03/08 10:25:11;;;;;;;;;;;;;;;17.36;42.64;101170.97;4952388;29;1918;-40
2024/03/08 10:27:36;;;;;;;;;;;;;;;16.40;44.60;101155.16;4957892;29;1363;-41
2024/03/08 10:30:02;;;;;;;;;;;;;;;15.92;45.52;101171.47;4941142;29;1249;-41
2024/03/08 10:32:28;;;;;;;;;;;;;;;15.71;46.39;101168.38;4954581;29;1339;-39
2024/03/08 10:34:53;;;;;;;;;;;;;;;16.05;45.68;101163.59;4957772;29;1134;-41
2024/03/08 10:37:22;;;;;;;;;;;;;;;17.45;42.50;101168.63;4957367;29;1260;-42
2024/03/08 10:39:52;;;;;;;;;;;;;;;16.76;43.56;101168.75;4940548;29;1253;-43
2024/03/08 10:42:19;;;;;;;;;;;;;;;16.13;44.99;101168.44;4955804;29;1269;-42
2024/03/08 10:44:59;;;;;;;;;;;;;;;15.95;45.50;101173.09;4957696;29;1957;-39
2024/03/08 10:47:30;;;;;;;;;;;;;;;15.64;46.45;101162.59;4954945;29;1405;-40
2024/03/08 10:50:12;;;;;;;;;;;;;;;16.13;45.48;101163.13;4942830;29;984;-40
2024/03/08 10:52:38;;;;;;;;;;;;;;;17.56;42.21;101160.75;4957543;29;1094;-41
2024/03/08 10:55:12;;;;;;;;;;;;;;;16.71;43.89;101170.00;4957707;29;1190;-42
2024/03/08 10:57:38;;;;;;;;;;;;;;;16.05;45.20;101163.59;4948189;29;1138;-40
2024/03/08 11:00:07;;;;;;;;;;;;;;;16.15;45.15;101164.72;4961869;29;1176;-39
2024/03/08 11:02:33;;;;;;;;;;;;;;;15.73;46.03;101163.84;4940895;29;871;-39
2024/03/08 11:04:59;;;;;;;;;;;;;;;15.73;46.54;101169.97;4961527;29;1967;-40
2024/03/08 11:07:27;;;;;;;;;;;;;;;17.23;43.07;101164.81;4961842;29;1142;-45
2024/03/08 11:09:52;;;;;;;;;;;;;;;16.64;44.07;101167.78;4960522;29;1045;-43
2024/03/08 11:12:18;;;;;;;;;;;;;;;16.13;45.15;101158.66;4950266;29;1026;-45
2024/03/08 11:14:46;;;;;;;;;;;;;;;15.79;45.77;101160.78;4960996;29;1225;-42
2024/03/08 11:17:13;;;;;;;;;;;;;;;15.58;46.88;101168.28;4961753;29;1105;-45
2024/03/08 11:19:40;;;;;;;;;;;;;;;17.11;43.20;101169.16;4961620;29;1062;-45
2024/03/08 11:22:07;;;;;;;;;;;;;;;16.82;43.29;101177.25;4955515;29;1093;-45
2024/03/08 11:24:41;;;;;;;;;;;;;;;16.19;44.91;101165.38;4952409;29;1576;-44
2024/03/08 11:27:07;;;;;;;;;;;;;;;15.79;46.20;101169.63;4954373;29;1382;-41
2024/03/08 11:29:36;;;;;;;;;;;;;;;15.57;46.58;101163.91;4947263;29;1225;-44
2024/03/08 11:32:08;;;;;;;;;;;;;;;16.22;45.42;101172.28;4951595;29;1138;-41
2024/03/08 11:34:34;;;;;;;;;;;;;;;17.49;42.35;101165.63;4958072;29;1482;-48
2024/03/08 11:36:59;;;;;;;;;;;;;;;16.81;43.68;101170.25;4950316;29;1247;-42
2024/03/08 11:39:25;;;;;;;;;;;;;;;16.20;44.86;101167.06;4956270;29;1250;-39
2024/03/08 11:41:51;;;;;;;;;;;;;;;15.84;45.70;101174.63;4957627;29;1039;-44
2024/03/08 11:44:17;;;;;;;;;;;;;;;15.67;46.33;101171.22;4958462;29;1240;-43
2024/03/08 11:46:47;;;;;;;;;;;;;;;16.01;45.65;101164.78;4955899;29;1914;-44
2024/03/08 11:49:15;;;;;;;;;;;;;;;17.41;42.31;101169.78;4956298;29;1137;-46
2024/03/08 11:51:41;;;;;;;;;;;;;;;16.53;44.25;101167.66;4958097;29;837;-47
2024/03/08 11:54:06;;;;;;;;;;;;;;;15.94;45.41;101166.94;4934252;29;1375;-43
2024/03/08 11:56:32;;;;;;;;;;;;;;;15.69;46.19;101167.63;4960599;29;1034;-47
2024/03/08 11:58:58;;;;;;;;;;;;;;;15.53;46.42;101163.28;4954578;29;1278;-45
2024/03/08 12:01:23;;;;;;;;;;;;;;;16.87;43.71;101165.38;4959615;29;952;-44
2024/03/08 12:03:53;;;;;;;;;;;;;;;17.39;42.29;101169.91;4953718;29;998;-45
2024/03/08 12:06:18;;;;;;;;;;;;;;;16.41;44.30;101164.00;4958527;29;1981;-41
2024/03/08 12:08:43;;;;;;;;;;;;;;;15.99;45.71;101164.00;4956538;28;1174;-44
2024/03/08 12:11:10;;;;;;;;;;;;;;;15.73;46.15;101162.00;4958604;29;1276;-45
2024/03/08 12:13:35;;;;;;;;;;;;;;;15.93;45.60;101170.53;4959929;29;1136;-42
2024/03/08 12:16:04;;;;;;;;;;;;;;;17.35;42.46;101176.41;4952404;29;1109;-46
2024/03/08 12:18:32;;;;;;;;;;;;;;;16.81;43.44;101165.78;4960403;29;1093;-46
2024/03/08 12:21:07;;;;;;;;;;;;;;;16.25;44.66;101172.94;4960911;29;1109;-46
2024/03/08 12:23:36;;;;;;;;;;;;;;;15.81;45.77;101166.00;4958286;29;1380;-45
2024/03/08 12:26:23;;;;;;;;;;;;;;;15.63;45.94;101160.91;4950721;29;1906;-47
2024/03/08 12:28:48;;;;;;;;;;;;;;;15.82;46.24;101167.69;4939747;29;1304;-45
2024/03/08 12:31:16;;;;;;;;;;;;;;;17.27;42.89;101162.78;4952470;29;1197;-41
2024/03/08 12:33:52;;;;;;;;;;;;;;;16.85;43.37;101156.66;4951280;29;1089;-44
2024/03/08 12:36:18;;;;;;;;;;;;;;;16.16;44.98;101160.28;4939168;29;1355;-43
2024/03/08 12:38:49;;;;;;;;;;;;;;;15.85;45.91;101167.53;4951145;29;1350;-44
2024/03/08 12:41:18;;;;;;;;;;;;;;;16.15;45.05;101175.34;4959876;29;1057;-46
2024/03/08 12:43:50;;;;;;;;;;;;;;;17.50;42.31;101163.81;4957949;29;983;-46
2024/03/08 12:46:15;;;;;;;;;;;;;;;16.61;43.84;101162.69;4958515;29;1980;-45
2024/03/08 12:48:41;;;;;;;;;;;;;;;16.09;44.98;101157.16;4959995;29;1145;-42
2024/03/08 12:51:07;;;;;;;;;;;;;;;15.79;45.85;101156.34;4941641;29;1417;-38